createdAt,value
2022-10-09T00:02:19.054Z,12.02
2022-10-09T00:04:42.590Z,11.93
2022-10-09T00:07:07.604Z,17.40
2022-10-09T00:09:31.323Z,11.20
2022-10-09T00:11:54.883Z,13.70
2022-10-09T00:14:18.438Z,10.18
2022-10-09T00:16:42.180Z,16.48
2022-10-09T00:19:06.363Z,10.02
2022-10-09T00:21:32.269Z,10.65
2022-10-09T00:23:59.934Z,12.30
2022-10-09T00:26:24.027Z,18.20
2022-10-09T00:28:48.482Z,12.55
2022-10-09T00:31:13.146Z,9.27
2022-10-09T00:33:37.729Z,12.82
2022-10-09T00:36:04.852Z,10.50
2022-10-09T00:38:29.704Z,11.35
2022-10-09T00:40:54.639Z,14.80
2022-10-09T00:43:21.255Z,7.83
2022-10-09T00:45:53.385Z,21.50
2022-10-09T00:48:18.384Z,11.97
2022-10-09T00:50:46.543Z,12.00
2022-10-09T00:53:13.376Z,18.83
2022-10-09T00:55:38.726Z,11.50
2022-10-09T00:58:04.527Z,11.97
2022-10-09T01:00:28.530Z,16.00
2022-10-09T01:02:52.651Z,13.70
2022-10-09T01:05:16.792Z,14.98
2022-10-09T01:07:49.614Z,9.60
2022-10-09T01:10:28.103Z,11.15
2022-10-09T01:13:05.964Z,12.33
2022-10-09T01:15:36.257Z,11.23
2022-10-09T01:18:07.255Z,13.73
2022-10-09T01:20:43.086Z,13.20
2022-10-09T01:23:57.673Z,10.10
2022-10-09T01:27:01.353Z,8.87
2022-10-09T01:29:28.943Z,16.17
2022-10-09T01:31:53.805Z,15.23
2022-10-09T01:34:20.112Z,7.10
2022-10-09T01:36:45.353Z,14.20
2022-10-09T01:39:12.626Z,12.33
2022-10-09T01:41:36.551Z,8.13
2022-10-09T01:44:01.677Z,8.37
2022-10-09T01:46:29.624Z,13.00
2022-10-09T01:49:07.215Z,10.33
2022-10-09T01:51:38.227Z,16.43
2022-10-09T01:54:06.283Z,9.65
2022-10-09T01:56:34.427Z,13.73
2022-10-09T01:59:03.762Z,8.37
2022-10-09T02:01:31.313Z,11.93
2022-10-09T02:03:58.465Z,8.33
2022-10-09T02:06:22.948Z,13.40
2022-10-09T02:08:51.422Z,16.43
2022-10-09T02:11:15.981Z,14.40
2022-10-09T02:13:40.148Z,9.33
2022-10-09T02:16:14.011Z,13.27
2022-10-09T02:18:42.043Z,11.30
2022-10-09T02:21:13.134Z,12.10
2022-10-09T02:23:39.525Z,6.87
2022-10-09T02:26:03.182Z,8.50
2022-10-09T02:28:27.119Z,12.97
2022-10-09T02:30:59.263Z,12.83
2022-10-09T02:33:32.603Z,12.90
2022-10-09T02:35:56.232Z,12.77
2022-10-09T02:38:19.748Z,9.43
2022-10-09T02:40:43.373Z,14.80
2022-10-09T02:43:06.947Z,19.07
2022-10-09T02:45:30.564Z,11.07
2022-10-09T02:47:54.128Z,17.23
2022-10-09T02:50:19.269Z,15.03
2022-10-09T02:52:42.908Z,17.93
2022-10-09T02:55:07.290Z,12.73
2022-10-09T02:57:30.889Z,20.80
2022-10-09T02:59:54.457Z,14.23
2022-10-09T03:02:18.025Z,11.23
2022-10-09T03:04:41.743Z,14.43
2022-10-09T03:07:06.896Z,21.83
2022-10-09T03:09:33.654Z,13.17
2022-10-09T03:11:57.515Z,14.17
2022-10-09T03:14:21.108Z,16.90
2022-10-09T03:16:44.672Z,16.10
2022-10-09T03:19:08.294Z,10.97
2022-10-09T03:21:31.862Z,9.23
2022-10-09T03:23:57.235Z,18.87
2022-10-09T03:26:23.360Z,27.30
2022-10-09T03:28:49.467Z,11.57
2022-10-09T03:31:22.574Z,10.93
2022-10-09T03:33:51.306Z,15.25
2022-10-09T03:36:15.112Z,17.83
2022-10-09T03:38:38.883Z,9.73
2022-10-09T03:41:06.157Z,7.57
2022-10-09T03:43:29.930Z,11.33
2022-10-09T03:45:53.506Z,12.83
2022-10-09T03:48:17.162Z,16.30
2022-10-09T03:50:41.734Z,10.03
2022-10-09T03:53:05.384Z,15.10
2022-10-09T03:55:28.923Z,10.80
2022-10-09T03:57:53.875Z,9.17
2022-10-09T04:00:17.840Z,9.77
2022-10-09T04:02:41.462Z,7.90
2022-10-09T04:05:05.578Z,8.23
2022-10-09T04:07:29.135Z,15.17
2022-10-09T04:09:52.723Z,9.80
2022-10-09T04:12:16.396Z,9.83
2022-10-09T04:14:41.340Z,11.30
2022-10-09T04:17:04.951Z,15.27
2022-10-09T04:19:28.487Z,11.53
2022-10-09T04:21:52.066Z,10.60
2022-10-09T04:24:15.684Z,11.80
2022-10-09T04:26:39.247Z,15.77
2022-10-09T04:29:02.781Z,9.33
2022-10-09T04:31:27.786Z,7.60
2022-10-09T04:33:51.332Z,12.40
2022-10-09T04:36:14.868Z,11.30
2022-10-09T04:38:38.456Z,9.67
2022-10-09T04:41:04.675Z,9.50
2022-10-09T04:43:28.640Z,9.87
2022-10-09T04:45:52.286Z,7.37
2022-10-09T04:48:17.208Z,15.10
2022-10-09T04:50:40.928Z,14.23
2022-10-09T04:53:04.487Z,9.17
2022-10-09T04:55:28.063Z,6.40
2022-10-09T04:57:51.599Z,12.30
2022-10-09T05:00:16.479Z,14.87
2022-10-09T05:02:40.004Z,12.80
2022-10-09T05:05:05.498Z,17.70
2022-10-09T05:07:29.047Z,10.97
2022-10-09T05:09:52.639Z,9.00
2022-10-09T05:12:16.187Z,12.63
2022-10-09T05:14:39.752Z,9.97
2022-10-09T05:17:23.226Z,7.30
2022-10-09T05:19:47.526Z,12.97
2022-10-09T05:22:12.513Z,8.87
2022-10-09T05:24:36.059Z,9.60
2022-10-09T05:26:59.648Z,7.30
2022-10-09T05:29:23.384Z,6.10
2022-10-09T05:31:49.493Z,12.07
2022-10-09T05:34:13.624Z,11.50
2022-10-09T05:36:37.396Z,10.30
2022-10-09T05:39:02.370Z,12.63
2022-10-09T05:41:25.970Z,11.27
2022-10-09T05:43:51.019Z,10.33
2022-10-09T05:46:17.799Z,14.23
2022-10-09T05:48:44.339Z,11.07
2022-10-09T05:51:13.259Z,12.00
2022-10-09T05:53:36.993Z,7.13
2022-10-09T05:56:12.704Z,15.00
2022-10-09T05:58:36.278Z,10.03
2022-10-09T06:01:02.028Z,10.17
2022-10-09T06:03:25.675Z,10.30
2022-10-09T06:05:49.196Z,12.43
2022-10-09T06:08:12.776Z,10.30
2022-10-09T06:10:36.337Z,10.03
2022-10-09T06:13:01.279Z,6.27
2022-10-09T06:15:24.791Z,15.37
2022-10-09T06:17:48.416Z,7.60
2022-10-09T06:20:11.922Z,16.13
2022-10-09T06:22:35.472Z,9.63
2022-10-09T06:24:59.015Z,10.60
2022-10-09T06:27:22.570Z,11.53
2022-10-09T06:29:47.475Z,12.37
2022-10-09T06:32:11.104Z,10.57
2022-10-09T06:34:34.617Z,10.40
2022-10-09T06:36:58.407Z,7.60
2022-10-09T06:39:22.646Z,5.87
2022-10-09T06:41:46.223Z,5.43
2022-10-09T06:44:49.721Z,6.53
2022-10-09T06:47:13.309Z,7.47
2022-10-09T06:49:36.908Z,9.20
2022-10-09T06:52:00.507Z,9.80
2022-10-09T06:54:24.064Z,14.23
2022-10-09T06:56:47.619Z,15.32
2022-10-09T06:59:12.788Z,14.50
2022-10-09T07:01:37.859Z,10.32
2022-10-09T07:04:04.023Z,11.63
2022-10-09T07:06:29.391Z,11.05
2022-10-09T07:08:59.049Z,17.13
2022-10-09T07:11:25.492Z,16.27
2022-10-09T07:13:50.944Z,22.27
2022-10-09T07:16:14.768Z,17.08
2022-10-09T07:18:40.164Z,15.98
2022-10-09T07:21:04.623Z,19.67
2022-10-09T07:23:29.462Z,15.18
2022-10-09T07:25:53.015Z,14.60
2022-10-09T07:28:17.095Z,11.60
2022-10-09T07:30:40.755Z,15.07
2022-10-09T07:33:04.327Z,10.32
2022-10-09T07:35:29.301Z,10.77
2022-10-09T07:37:53.391Z,16.55
2022-10-09T07:40:17.220Z,20.17
2022-10-09T07:42:40.797Z,10.23
2022-10-09T07:45:04.624Z,13.95
2022-10-09T07:47:28.128Z,12.85
2022-10-09T07:49:51.832Z,20.52
2022-10-09T07:52:16.755Z,13.88
2022-10-09T07:54:40.340Z,15.27
2022-10-09T07:57:04.066Z,14.18
2022-10-09T07:59:27.711Z,12.10
2022-10-09T08:01:51.299Z,15.60
2022-10-09T08:04:14.945Z,12.32
2022-10-09T08:06:38.520Z,14.70
2022-10-09T08:09:06.594Z,11.20
2022-10-09T08:11:31.534Z,8.43
2022-10-09T08:13:55.603Z,12.38
2022-10-09T08:16:20.909Z,12.73
2022-10-09T08:18:44.651Z,9.77
2022-10-09T08:21:11.159Z,8.35
2022-10-09T08:23:34.826Z,15.63
2022-10-09T08:26:00.535Z,10.02
2022-10-09T08:28:24.725Z,11.70
2022-10-09T08:30:48.847Z,11.38
2022-10-09T08:33:12.492Z,15.30
2022-10-09T08:35:36.070Z,11.00
2022-10-09T08:37:59.602Z,7.63
2022-10-09T08:40:30.987Z,12.05
2022-10-09T08:43:01.698Z,9.88
2022-10-09T08:45:25.604Z,8.57
2022-10-09T08:47:56.567Z,12.07
2022-10-09T08:50:24.684Z,8.45
2022-10-09T08:52:55.978Z,12.48
2022-10-09T08:55:25.355Z,9.95
2022-10-09T08:57:53.454Z,7.90
2022-10-09T09:00:21.665Z,10.15
2022-10-09T09:03:27.171Z,10.43
2022-10-09T09:05:59.789Z,13.10
2022-10-09T09:08:33.381Z,11.48
2022-10-09T09:11:12.224Z,11.65
2022-10-09T09:13:53.990Z,8.10
2022-10-09T09:16:28.345Z,11.32
2022-10-09T09:19:05.523Z,12.18
2022-10-09T09:21:41.524Z,9.98
2022-10-09T09:24:14.180Z,10.23
2022-10-09T09:26:38.286Z,9.13
2022-10-09T09:29:06.030Z,8.23
2022-10-09T09:31:37.126Z,14.15
2022-10-09T09:34:10.279Z,9.80
2022-10-09T09:36:40.150Z,9.77
2022-10-09T09:41:47.444Z,9.20
2022-10-09T09:44:13.251Z,8.43
2022-10-09T09:46:40.501Z,9.10
2022-10-09T09:49:09.218Z,7.03
2022-10-09T09:51:34.275Z,7.63
2022-10-09T09:54:00.371Z,9.32
2022-10-09T09:56:59.735Z,8.77
2022-10-09T09:59:33.823Z,7.57
2022-10-09T10:02:10.028Z,8.90
2022-10-09T10:04:34.127Z,7.00
2022-10-09T10:06:57.956Z,7.80
2022-10-09T10:09:22.791Z,10.18
2022-10-09T10:11:50.371Z,9.52
2022-10-09T10:14:16.640Z,9.25
2022-10-09T10:16:41.671Z,7.57
2022-10-09T10:19:07.407Z,9.65
2022-10-09T10:21:42.341Z,9.10
2022-10-09T10:24:07.538Z,11.63
2022-10-09T10:26:37.250Z,8.98
2022-10-09T10:29:05.687Z,6.38
2022-10-09T10:31:47.726Z,9.20
2022-10-09T10:34:21.266Z,10.07
2022-10-09T10:36:45.152Z,11.38
2022-10-09T10:39:19.547Z,5.78
2022-10-09T10:41:49.148Z,9.48
2022-10-09T10:44:23.939Z,9.32
2022-10-09T10:46:52.708Z,6.88
2022-10-09T10:49:22.368Z,7.13
2022-10-09T10:52:04.278Z,7.43
2022-10-09T10:54:52.227Z,7.93
2022-10-09T10:57:23.155Z,9.00
2022-10-09T10:59:58.167Z,12.98
2022-10-09T11:03:07.646Z,7.80
2022-10-09T11:05:48.461Z,8.85
2022-10-09T11:08:34.199Z,7.32
2022-10-09T11:11:04.898Z,9.00
2022-10-09T11:13:33.487Z,9.40
2022-10-09T11:16:12.116Z,7.97
2022-10-09T11:19:01.535Z,7.20
2022-10-09T11:21:42.627Z,7.18
2022-10-09T11:24:58.248Z,7.05
2022-10-09T11:27:27.624Z,9.98
2022-10-09T11:29:57.296Z,6.18
2022-10-09T11:32:25.831Z,6.07
2022-10-09T11:34:56.905Z,5.18
2022-10-09T11:37:28.376Z,9.85
2022-10-09T11:39:52.089Z,7.25
2022-10-09T11:42:24.759Z,3.38
2022-10-09T11:45:01.383Z,6.28
2022-10-09T11:47:35.851Z,8.05
2022-10-09T11:50:18.872Z,6.00
2022-10-09T11:52:53.108Z,6.90
2022-10-09T11:55:22.850Z,5.53
2022-10-09T11:57:46.624Z,6.75
2022-10-09T12:00:12.496Z,5.80
2022-10-09T12:02:36.737Z,7.35
2022-10-09T12:05:00.491Z,7.32
2022-10-09T12:07:34.603Z,11.00
2022-10-09T12:10:07.782Z,6.47
2022-10-09T12:12:32.291Z,9.23
2022-10-09T12:14:55.925Z,6.13
2022-10-09T12:17:36.048Z,10.13
2022-10-09T12:20:07.758Z,7.95
2022-10-09T12:22:36.616Z,5.45
2022-10-09T12:25:06.911Z,5.35
2022-10-09T12:27:40.415Z,5.82
2022-10-09T12:30:19.143Z,9.43
2022-10-09T12:32:48.117Z,5.15
2022-10-09T12:35:23.436Z,8.30
2022-10-09T12:37:47.043Z,8.55
2022-10-09T12:40:17.351Z,7.40
2022-10-09T12:42:41.243Z,6.03
2022-10-09T12:45:05.242Z,7.30
2022-10-09T12:47:31.303Z,8.65
2022-10-09T12:50:00.974Z,6.22
2022-10-09T12:52:24.721Z,6.20
2022-10-09T12:54:48.250Z,6.55
2022-10-09T12:57:17.021Z,8.52
2022-10-09T12:59:41.067Z,5.95
2022-10-09T13:02:04.824Z,6.10
2022-10-09T13:04:32.896Z,6.78
2022-10-09T13:06:58.013Z,10.73
2022-10-09T13:09:25.103Z,4.82
2022-10-09T13:11:59.684Z,5.28
2022-10-09T13:14:34.716Z,8.38
2022-10-09T13:16:58.359Z,8.52
2022-10-09T13:19:27.557Z,6.75
2022-10-09T13:22:13.956Z,7.65
2022-10-09T13:24:38.074Z,9.48
2022-10-09T13:27:01.679Z,8.30
2022-10-09T13:29:26.851Z,5.95
2022-10-09T13:31:50.454Z,11.23
2022-10-09T13:34:15.048Z,5.43
2022-10-09T13:36:38.576Z,7.13
2022-10-09T13:39:02.228Z,10.27
2022-10-09T13:41:26.417Z,8.05
2022-10-09T13:43:51.858Z,8.95
2022-10-09T13:46:17.412Z,9.73
2022-10-09T13:48:41.015Z,5.97
2022-10-09T13:51:06.197Z,8.68
2022-10-09T13:53:29.817Z,6.68
2022-10-09T13:55:59.979Z,7.13
2022-10-09T13:58:24.843Z,6.20
2022-10-09T14:00:49.072Z,7.85
2022-10-09T14:03:14.088Z,10.25
2022-10-09T14:05:37.618Z,5.47
2022-10-09T14:08:01.271Z,6.10
2022-10-09T14:10:24.785Z,6.38
2022-10-09T14:12:48.595Z,6.68
2022-10-09T14:15:12.734Z,6.78
2022-10-09T14:17:36.267Z,7.22
2022-10-09T14:20:01.248Z,6.75
2022-10-09T14:22:24.851Z,4.57
2022-10-09T14:24:48.396Z,6.28
2022-10-09T14:27:12.260Z,9.25
2022-10-09T14:29:37.484Z,5.93
2022-10-09T14:32:01.039Z,5.05
2022-10-09T14:34:24.639Z,6.10
2022-10-09T14:36:49.975Z,7.35
2022-10-09T14:39:13.513Z,6.25
2022-10-09T14:41:38.027Z,8.32
2022-10-09T14:44:02.226Z,5.85
2022-10-09T14:46:27.080Z,5.82
2022-10-09T14:48:51.243Z,4.05
2022-10-09T14:51:17.848Z,5.38
2022-10-09T14:53:43.627Z,6.75
2022-10-09T14:56:11.583Z,5.20
2022-10-09T14:58:37.282Z,6.03
2022-10-09T15:01:01.576Z,7.90
2022-10-09T15:03:25.879Z,6.30
2022-10-09T15:05:49.507Z,5.30
2022-10-09T15:08:13.030Z,9.40
2022-10-09T15:10:38.088Z,7.75
2022-10-09T15:13:01.611Z,5.25
2022-10-09T15:15:26.980Z,8.10
2022-10-09T15:17:52.826Z,9.82
2022-10-09T15:20:16.616Z,6.47
2022-10-09T15:22:40.135Z,6.35
2022-10-09T15:25:03.839Z,7.43
2022-10-09T15:27:29.156Z,7.95
2022-10-09T15:29:52.712Z,4.82
2022-10-09T15:32:16.275Z,5.63
2022-10-09T15:34:41.183Z,6.63
2022-10-09T15:37:04.859Z,9.35
2022-10-09T15:39:28.578Z,6.72
2022-10-09T15:41:52.126Z,7.90
2022-10-09T15:44:20.526Z,4.45
2022-10-09T15:46:44.385Z,5.20
2022-10-09T15:49:09.047Z,4.63
2022-10-09T15:51:33.294Z,6.00
2022-10-09T15:53:57.347Z,6.95
2022-10-09T15:56:23.698Z,6.30
2022-10-09T15:58:47.515Z,5.30
2022-10-09T16:01:16.119Z,7.20
2022-10-09T16:03:40.624Z,4.05
2022-10-09T16:06:07.713Z,7.72
2022-10-09T16:08:31.674Z,5.03
2022-10-09T16:10:55.582Z,9.55
2022-10-09T16:13:21.096Z,6.50
2022-10-09T16:15:47.147Z,7.70
2022-10-09T16:18:13.176Z,14.38
2022-10-09T16:20:37.536Z,11.00
2022-10-09T16:23:01.229Z,9.68
2022-10-09T16:25:24.731Z,10.35
2022-10-09T16:27:48.351Z,8.82
2022-10-09T16:30:14.007Z,14.80
2022-10-09T16:32:37.977Z,11.80
2022-10-09T16:35:03.051Z,11.75
2022-10-09T16:37:26.647Z,12.00
2022-10-09T16:39:50.464Z,12.05
2022-10-09T16:42:14.000Z,12.15
2022-10-09T16:44:37.580Z,13.35
2022-10-09T16:47:01.148Z,12.45
2022-10-09T16:49:25.161Z,10.70
2022-10-09T16:51:50.298Z,8.50
2022-10-09T16:54:13.848Z,9.90
2022-10-09T16:56:40.885Z,14.27
2022-10-09T16:59:07.563Z,15.02
2022-10-09T17:01:32.272Z,9.43
2022-10-09T17:03:56.861Z,10.48
2022-10-09T17:06:20.937Z,12.68
2022-10-09T17:08:45.834Z,10.50
2022-10-09T17:11:11.030Z,12.65
2022-10-09T17:13:34.609Z,11.40
2022-10-09T17:15:58.187Z,12.45
2022-10-09T17:18:22.027Z,13.00
2022-10-09T17:20:45.680Z,16.33
2022-10-09T17:23:09.209Z,14.10
2022-10-09T17:25:34.380Z,10.98
2022-10-09T17:27:57.939Z,10.80
2022-10-09T17:30:21.728Z,13.13
2022-10-09T17:32:45.276Z,12.02
2022-10-09T17:35:09.929Z,16.90
2022-10-09T17:37:33.464Z,8.10
2022-10-09T17:39:57.275Z,13.73
2022-10-09T17:42:22.326Z,9.98
2022-10-09T17:44:46.012Z,12.80
2022-10-09T17:47:09.748Z,9.00
2022-10-09T17:49:33.386Z,15.73
2022-10-09T17:51:57.239Z,18.08
2022-10-09T17:54:20.861Z,15.02
2022-10-09T17:56:45.260Z,12.95
2022-10-09T17:59:11.411Z,14.30
2022-10-09T18:01:35.048Z,20.63
2022-10-09T18:03:59.662Z,16.15
2022-10-09T18:06:24.851Z,17.73
2022-10-09T18:08:48.618Z,23.85
2022-10-09T18:11:15.847Z,16.90
2022-10-09T18:13:41.573Z,20.55
2022-10-09T18:16:10.640Z,20.17
2022-10-09T18:18:34.310Z,20.65
2022-10-09T18:21:03.663Z,19.38
2022-10-09T18:23:27.213Z,19.63
2022-10-09T18:25:50.819Z,16.75
2022-10-09T18:28:15.118Z,19.90
2022-10-09T18:30:43.283Z,18.70
2022-10-09T18:33:08.281Z,20.35
2022-10-09T18:35:31.766Z,22.58
2022-10-09T18:37:55.311Z,17.65
2022-10-09T18:40:19.812Z,19.05
2022-10-09T18:42:43.420Z,22.58
2022-10-09T18:45:08.808Z,26.65
2022-10-09T18:47:35.546Z,24.15
2022-10-09T18:50:02.743Z,25.70
2022-10-09T18:52:27.017Z,29.02
2022-10-09T18:54:54.080Z,28.38
2022-10-09T18:57:17.987Z,28.83
2022-10-09T18:59:41.976Z,25.33
2022-10-09T19:02:05.848Z,27.92
2022-10-09T19:04:29.455Z,27.70
2022-10-09T19:06:55.544Z,26.65
2022-10-09T19:09:19.093Z,32.35
2022-10-09T19:11:42.683Z,29.05
2022-10-09T19:14:06.510Z,27.80
2022-10-09T19:16:31.752Z,33.58
2022-10-09T19:18:55.339Z,32.15
2022-10-09T19:21:18.905Z,40.03
2022-10-09T19:23:44.078Z,36.88
2022-10-09T19:26:07.698Z,41.53
2022-10-09T19:28:32.943Z,44.08
2022-10-09T19:30:56.758Z,50.90
2022-10-09T19:33:20.676Z,47.10
2022-10-09T19:35:49.734Z,55.55
2022-10-09T19:38:13.786Z,50.00
2022-10-09T19:40:38.744Z,52.10
2022-10-09T19:43:02.259Z,44.95
2022-10-09T19:45:25.900Z,42.33
2022-10-09T19:47:54.112Z,41.75
2022-10-09T19:50:18.142Z,43.85
2022-10-09T19:52:41.725Z,34.20
2022-10-09T19:55:05.988Z,32.28
2022-10-09T19:57:30.901Z,27.13
2022-10-09T19:59:54.512Z,31.13
2022-10-09T20:02:18.578Z,23.48
2022-10-09T20:04:42.181Z,25.40
2022-10-09T20:07:09.055Z,20.92
2022-10-09T20:09:36.074Z,22.17
2022-10-09T20:11:59.620Z,21.52
2022-10-09T20:14:25.292Z,22.88
2022-10-09T20:16:48.832Z,20.13
2022-10-09T20:19:12.975Z,17.00
2022-10-09T20:21:36.695Z,19.75
2022-10-09T20:24:01.336Z,17.65
2022-10-09T20:26:25.408Z,20.48
2022-10-09T20:28:50.150Z,19.15
2022-10-09T20:31:18.058Z,21.20
2022-10-09T20:33:42.207Z,18.50
2022-10-09T20:36:07.365Z,19.02
2022-10-09T20:38:30.996Z,18.15
2022-10-09T20:40:54.708Z,15.52
2022-10-09T20:43:18.455Z,16.75
2022-10-09T20:45:42.860Z,19.88
2022-10-09T20:48:07.800Z,17.58
2022-10-09T20:50:31.360Z,15.75
2022-10-09T20:52:54.936Z,13.45
2022-10-09T20:55:18.684Z,18.42
2022-10-09T20:57:42.303Z,15.90
2022-10-09T21:00:07.583Z,14.18
2022-10-09T21:02:31.138Z,18.08
2022-10-09T21:04:56.102Z,13.63
2022-10-09T21:07:19.683Z,19.00
2022-10-09T21:09:43.226Z,14.27
2022-10-09T21:12:07.058Z,13.68
2022-10-09T21:14:30.666Z,16.20
2022-10-09T21:16:54.247Z,12.80
2022-10-09T21:19:17.900Z,15.23
2022-10-09T21:21:45.363Z,13.13
2022-10-09T21:24:11.067Z,12.70
2022-10-09T21:26:36.074Z,12.82
2022-10-09T21:29:00.310Z,12.30
2022-10-09T21:31:28.341Z,16.83
2022-10-09T21:33:52.007Z,14.57
2022-10-09T21:36:29.493Z,10.15
2022-10-09T21:38:54.559Z,15.25
2022-10-09T21:41:18.091Z,13.45
2022-10-09T21:43:41.647Z,14.50
2022-10-09T21:46:05.283Z,9.40
2022-10-09T21:48:28.841Z,10.35
2022-10-09T21:50:52.392Z,13.65
2022-10-09T21:53:15.993Z,9.82
2022-10-09T21:55:41.219Z,14.60
2022-10-09T21:58:04.854Z,11.93
2022-10-09T22:00:28.449Z,7.35
2022-10-09T22:02:52.324Z,10.57
2022-10-09T22:05:16.156Z,11.75
2022-10-09T22:07:39.776Z,10.32
2022-10-09T22:10:03.851Z,9.95
2022-10-09T22:12:28.886Z,12.13
2022-10-09T22:14:52.452Z,9.65
2022-10-09T22:17:16.063Z,10.00
2022-10-09T22:19:39.632Z,9.85
2022-10-09T22:22:03.291Z,8.15
2022-10-09T22:24:29.223Z,10.75
2022-10-09T22:26:52.987Z,11.77
2022-10-09T22:29:17.949Z,6.07
2022-10-09T22:31:41.539Z,10.18
2022-10-09T22:34:05.554Z,8.88
2022-10-09T22:36:32.188Z,9.07
2022-10-09T22:38:58.583Z,10.90
2022-10-09T22:41:23.902Z,13.57
2022-10-09T22:43:50.252Z,12.25
2022-10-09T22:46:18.206Z,7.30
2022-10-09T22:48:43.050Z,10.60
2022-10-09T22:51:09.098Z,11.52
2022-10-09T22:53:32.843Z,11.23
2022-10-09T22:55:56.463Z,11.38
2022-10-09T22:58:20.040Z,11.23
2022-10-09T23:00:43.735Z,10.43
2022-10-09T23:03:08.700Z,11.90
2022-10-09T23:05:32.277Z,9.10
2022-10-09T23:07:55.799Z,10.85
2022-10-09T23:10:19.355Z,7.95
2022-10-09T23:12:42.910Z,9.32
2022-10-09T23:15:07.883Z,12.63
2022-10-09T23:17:31.412Z,11.50
2022-10-09T23:19:56.427Z,13.68
2022-10-09T23:22:20.027Z,12.98
2022-10-09T23:24:43.678Z,15.82
2022-10-09T23:27:07.236Z,8.98
2022-10-09T23:29:30.870Z,9.73
2022-10-09T23:31:54.749Z,9.93
2022-10-09T23:34:18.505Z,9.02
2022-10-09T23:36:43.524Z,10.68
2022-10-09T23:39:08.206Z,6.65
2022-10-09T23:41:32.290Z,11.43
2022-10-09T23:43:56.763Z,9.57
2022-10-09T23:46:23.499Z,12.95
2022-10-09T23:48:48.231Z,11.25
2022-10-09T23:51:12.301Z,8.02
2022-10-09T23:53:37.630Z,7.35
2022-10-09T23:56:01.205Z,8.65
2022-10-09T23:58:24.904Z,9.13
